sensor_id;sensor_type;location;lat;lon;timestamp;pressure;altitude;pressure_sealevel;temperature;humidity
85936;BME280;76481;54.346;10.210;2024-02-21T00:00:52;101396.63;;;7.81;94.60
85936;BME280;76481;54.346;10.210;2024-02-21T00:03:17;101388.59;;;7.83;94.59
85936;BME280;76481;54.346;10.210;2024-02-21T00:05:43;101398.91;;;7.90;94.49
85936;BME280;76481;54.346;10.210;2024-02-21T00:08:08;101384.84;;;7.93;94.61
85936;BME280;76481;54.346;10.210;2024-02-21T00:10:34;101378.50;;;7.89;95.00
85936;BME280;76481;54.346;10.210;2024-02-21T00:13:00;101390.88;;;7.92;94.85
85936;BME280;76481;54.346;10.210;2024-02-21T00:15:26;101383.69;;;7.91;94.39
85936;BME280;76481;54.346;10.210;2024-02-21T00:17:52;101378.06;;;7.91;95.13
85936;BME280;76481;54.346;10.210;2024-02-21T00:20:17;101375.63;;;7.93;94.92
85936;BME280;76481;54.346;10.210;2024-02-21T00:22:46;101371.97;;;7.96;94.71
85936;BME280;76481;54.346;10.210;2024-02-21T00:25:11;101356.75;;;7.97;94.36
85936;BME280;76481;54.346;10.210;2024-02-21T00:27:37;101365.09;;;8.00;94.24
85936;BME280;76481;54.346;10.210;2024-02-21T00:30:03;101349.47;;;7.99;93.86
85936;BME280;76481;54.346;10.210;2024-02-21T00:32:29;101351.81;;;8.04;93.58
85936;BME280;76481;54.346;10.210;2024-02-21T00:34:54;101351.38;;;8.06;93.86
85936;BME280;76481;54.346;10.210;2024-02-21T00:37:20;101345.75;;;8.06;93.82
85936;BME280;76481;54.346;10.210;2024-02-21T00:39:45;101345.41;;;8.04;94.38
85936;BME280;76481;54.346;10.210;2024-02-21T00:42:11;101332.59;;;8.03;94.30
85936;BME280;76481;54.346;10.210;2024-02-21T00:44:36;101329.78;;;8.03;94.19
85936;BME280;76481;54.346;10.210;2024-02-21T00:47:01;101316.09;;;8.05;94.38
85936;BME280;76481;54.346;10.210;2024-02-21T00:49:27;101322.88;;;8.07;94.19
85936;BME280;76481;54.346;10.210;2024-02-21T00:51:52;101312.03;;;8.09;93.49
85936;BME280;76481;54.346;10.210;2024-02-21T00:54:18;101310.78;;;8.10;93.69
85936;BME280;76481;54.346;10.210;2024-02-21T00:56:43;101308.00;;;8.10;93.63
85936;BME280;76481;54.346;10.210;2024-02-21T00:59:09;101298.78;;;8.10;94.21
85936;BME280;76481;54.346;10.210;2024-02-21T01:01:34;101304.41;;;8.10;93.88
85936;BME280;76481;54.346;10.210;2024-02-21T01:04:00;101289.97;;;8.08;94.52
85936;BME280;76481;54.346;10.210;2024-02-21T01:06:25;101289.59;;;8.06;94.16
85936;BME280;76481;54.346;10.210;2024-02-21T01:08:51;101296.00;;;8.06;94.67
85936;BME280;76481;54.346;10.210;2024-02-21T01:11:16;101292.06;;;8.04;95.01
85936;BME280;76481;54.346;10.210;2024-02-21T01:13:42;101284.78;;;8.06;94.79
85936;BME280;76481;54.346;10.210;2024-02-21T01:16:07;101274.34;;;8.07;94.90
85936;BME280;76481;54.346;10.210;2024-02-21T01:18:34;101276.78;;;8.05;94.90
85936;BME280;76481;54.346;10.210;2024-02-21T01:20:59;101261.50;;;8.06;95.27
85936;BME280;76481;54.346;10.210;2024-02-21T01:23:25;101275.56;;;8.06;95.62
85936;BME280;76481;54.346;10.210;2024-02-21T01:25:51;101268.78;;;8.03;95.53
85936;BME280;76481;54.346;10.210;2024-02-21T01:28:18;101262.38;;;8.03;95.61
85936;BME280;76481;54.346;10.210;2024-02-21T01:30:43;101255.16;;;8.02;95.84
85936;BME280;76481;54.346;10.210;2024-02-21T01:33:09;101248.78;;;8.01;95.96
85936;BME280;76481;54.346;10.210;2024-02-21T01:35:35;101235.16;;;8.00;96.69
85936;BME280;76481;54.346;10.210;2024-02-21T01:38:02;101219.88;;;8.01;96.28
85936;BME280;76481;54.346;10.210;2024-02-21T01:40:28;101228.69;;;8.03;96.23
85936;BME280;76481;54.346;10.210;2024-02-21T01:42:56;101219.03;;;8.04;95.81
85936;BME280;76481;54.346;10.210;2024-02-21T01:45:21;101217.47;;;8.03;95.80
85936;BME280;76481;54.346;10.210;2024-02-21T01:47:48;101210.66;;;8.00;96.92
85936;BME280;76481;54.346;10.210;2024-02-21T01:50:15;101168.50;;;8.04;96.35
85936;BME280;76481;54.346;10.210;2024-02-21T01:52:43;101132.75;;;8.04;95.91
85936;BME280;76481;54.346;10.210;2024-02-21T01:55:13;101190.94;;;8.04;96.38
85936;BME280;76481;54.346;10.210;2024-02-21T01:57:40;101166.84;;;8.06;96.71
85936;BME280;76481;54.346;10.210;2024-02-21T02:00:09;101154.38;;;8.07;96.23
85936;BME280;76481;54.346;10.210;2024-02-21T02:02:37;101151.94;;;8.09;96.45
85936;BME280;76481;54.346;10.210;2024-02-21T02:05:04;101164.41;;;8.08;95.90
85936;BME280;76481;54.346;10.210;2024-02-21T02:07:31;101162.03;;;8.07;96.17
85936;BME280;76481;54.346;10.210;2024-02-21T02:09:57;101153.09;;;8.12;96.14
85936;BME280;76481;54.346;10.210;2024-02-21T02:12:22;101141.88;;;8.12;95.93
85936;BME280;76481;54.346;10.210;2024-02-21T02:15:00;101138.63;;;8.13;95.43
85936;BME280;76481;54.346;10.210;2024-02-21T02:17:26;101135.41;;;8.15;96.26
85936;BME280;76481;54.346;10.210;2024-02-21T02:19:51;101147.44;;;8.15;95.85
85936;BME280;76481;54.346;10.210;2024-02-21T02:22:22;101130.53;;;8.19;95.78
85936;BME280;76481;54.346;10.210;2024-02-21T02:24:48;101126.91;;;8.18;95.59
85936;BME280;76481;54.346;10.210;2024-02-21T02:27:14;101122.09;;;8.19;95.62
85936;BME280;76481;54.346;10.210;2024-02-21T02:29:39;101124.09;;;8.22;95.19
85936;BME280;76481;54.346;10.210;2024-02-21T02:32:05;101111.22;;;8.21;95.23
85936;BME280;76481;54.346;10.210;2024-02-21T02:34:31;101105.69;;;8.17;95.59
85936;BME280;76481;54.346;10.210;2024-02-21T02:36:56;101118.50;;;8.18;95.97
85936;BME280;76481;54.346;10.210;2024-02-21T02:39:22;101116.16;;;8.13;96.34
85936;BME280;76481;54.346;10.210;2024-02-21T02:41:47;101108.91;;;8.16;96.10
85936;BME280;76481;54.346;10.210;2024-02-21T02:44:12;101108.91;;;8.16;96.65
85936;BME280;76481;54.346;10.210;2024-02-21T02:46:40;101115.31;;;8.16;96.54
85936;BME280;76481;54.346;10.210;2024-02-21T02:49:06;101108.91;;;8.16;97.04
85936;BME280;76481;54.346;10.210;2024-02-21T02:51:32;101104.06;;;8.16;95.86
85936;BME280;76481;54.346;10.210;2024-02-21T02:53:57;101098.53;;;8.13;96.64
85936;BME280;76481;54.346;10.210;2024-02-21T02:56:23;101107.44;;;8.08;97.08
85936;BME280;76481;54.346;10.210;2024-02-21T02:58:48;101113.78;;;8.12;96.92
85936;BME280;76481;54.346;10.210;2024-02-21T03:01:13;101105.00;;;8.10;97.09
85936;BME280;76481;54.346;10.210;2024-02-21T03:03:40;101103.28;;;8.16;97.30
85936;BME280;76481;54.346;10.210;2024-02-21T03:06:05;101101.81;;;8.08;97.33
85936;BME280;76481;54.346;10.210;2024-02-21T03:08:31;101116.25;;;8.10;96.61
85936;BME280;76481;54.346;10.210;2024-02-21T03:10:58;101105.31;;;8.15;96.73
85936;BME280;76481;54.346;10.210;2024-02-21T03:13:25;101108.91;;;8.16;96.68
85936;BME280;76481;54.346;10.210;2024-02-21T03:15:51;101110.53;;;8.13;97.77
85936;BME280;76481;54.346;10.210;2024-02-21T03:18:16;101110.63;;;8.10;97.30
85936;BME280;76481;54.346;10.210;2024-02-21T03:20:42;101100.97;;;8.11;97.19
85936;BME280;76481;54.346;10.210;2024-02-21T03:23:07;101119.47;;;8.08;97.17
85936;BME280;76481;54.346;10.210;2024-02-21T03:25:33;101107.81;;;8.10;97.57
85936;BME280;76481;54.346;10.210;2024-02-21T03:27:58;101115.38;;;8.13;97.11
85936;BME280;76481;54.346;10.210;2024-02-21T03:30:23;101117.81;;;8.11;96.72
85936;BME280;76481;54.346;10.210;2024-02-21T03:32:49;101114.63;;;8.09;97.03
85936;BME280;76481;54.346;10.210;2024-02-21T03:35:14;101105.06;;;8.06;96.64
85936;BME280;76481;54.346;10.210;2024-02-21T03:37:40;101100.72;;;8.02;97.03
85936;BME280;76481;54.346;10.210;2024-02-21T03:40:08;101100.28;;;8.03;96.95
85936;BME280;76481;54.346;10.210;2024-02-21T03:42:33;101101.53;;;8.02;96.82
85936;BME280;76481;54.346;10.210;2024-02-21T03:44:59;101105.13;;;8.03;96.77
85936;BME280;76481;54.346;10.210;2024-02-21T03:47:24;101109.16;;;8.02;96.66
85936;BME280;76481;54.346;10.210;2024-02-21T03:49:50;101111.66;;;7.96;96.32
85936;BME280;76481;54.346;10.210;2024-02-21T03:52:15;101128.97;;;7.91;97.12
85936;BME280;76481;54.346;10.210;2024-02-21T03:54:42;101136.66;;;7.87;96.65
85936;BME280;76481;54.346;10.210;2024-02-21T03:57:07;101140.69;;;7.86;95.14
85936;BME280;76481;54.346;10.210;2024-02-21T03:59:33;101142.38;;;7.80;95.39
85936;BME280;76481;54.346;10.210;2024-02-21T04:01:58;101130.06;;;7.74;95.63
85936;BME280;76481;54.346;10.210;2024-02-21T04:04:24;101118.94;;;7.67;95.65
85936;BME280;76481;54.346;10.210;2024-02-21T04:06:50;101137.78;;;7.67;95.85
85936;BME280;76481;54.346;10.210;2024-02-21T04:09:16;101157.03;;;7.65;96.10
85936;BME280;76481;54.346;10.210;2024-02-21T04:11:42;101134.28;;;7.59;95.93
85936;BME280;76481;54.346;10.210;2024-02-21T04:14:07;101138.75;;;7.57;95.88
85936;BME280;76481;54.346;10.210;2024-02-21T04:16:34;101130.78;;;7.52;95.37
85936;BME280;76481;54.346;10.210;2024-02-21T04:18:59;101140.47;;;7.47;96.69
85936;BME280;76481;54.346;10.210;2024-02-21T04:21:25;101141.28;;;7.48;95.63
85936;BME280;76481;54.346;10.210;2024-02-21T04:23:50;101143.69;;;7.46;96.42
85936;BME280;76481;54.346;10.210;2024-02-21T04:26:16;101140.56;;;7.40;96.62
85936;BME280;76481;54.346;10.210;2024-02-21T04:28:42;101154.19;;;7.42;95.24
85936;BME280;76481;54.346;10.210;2024-02-21T04:31:07;101145.44;;;7.36;96.33
85936;BME280;76481;54.346;10.210;2024-02-21T04:33:33;101159.06;;;7.38;96.43
85936;BME280;76481;54.346;10.210;2024-02-21T04:35:58;101171.47;;;7.37;95.89
85936;BME280;76481;54.346;10.210;2024-02-21T04:38:23;101164.75;;;7.31;95.95
85936;BME280;76481;54.346;10.210;2024-02-21T04:40:49;101171.94;;;7.32;96.42
85936;BME280;76481;54.346;10.210;2024-02-21T04:43:14;101164.00;;;7.27;96.28
85936;BME280;76481;54.346;10.210;2024-02-21T04:45:40;101162.03;;;7.24;97.35
85936;BME280;76481;54.346;10.210;2024-02-21T04:48:05;101164.06;;;7.23;96.93
85936;BME280;76481;54.346;10.210;2024-02-21T04:50:31;101164.47;;;7.22;95.91
85936;BME280;76481;54.346;10.210;2024-02-21T04:52:56;101152.88;;;7.20;96.11
85936;BME280;76481;54.346;10.210;2024-02-21T04:55:22;101143.22;;;7.21;97.38
85936;BME280;76481;54.346;10.210;2024-02-21T04:57:47;101154.50;;;7.17;97.28
85936;BME280;76481;54.346;10.210;2024-02-21T05:00:13;101151.75;;;7.14;96.91
85936;BME280;76481;54.346;10.210;2024-02-21T05:02:39;101147.72;;;7.15;97.24
85936;BME280;76481;54.346;10.210;2024-02-21T05:05:04;101156.50;;;7.17;96.78
85936;BME280;76481;54.346;10.210;2024-02-21T05:07:30;101156.13;;;7.15;96.33
85936;BME280;76481;54.346;10.210;2024-02-21T05:09:55;101145.72;;;7.15;95.98
85936;BME280;76481;54.346;10.210;2024-02-21T05:12:21;101146.53;;;7.16;96.36
85936;BME280;76481;54.346;10.210;2024-02-21T05:14:47;101144.06;;;7.18;96.17
85936;BME280;76481;54.346;10.210;2024-02-21T05:17:12;101136.88;;;7.17;95.34
85936;BME280;76481;54.346;10.210;2024-02-21T05:19:38;101127.72;;;7.13;96.99
85936;BME280;76481;54.346;10.210;2024-02-21T05:22:03;101126.50;;;7.14;96.74
85936;BME280;76481;54.346;10.210;2024-02-21T05:24:29;101130.13;;;7.14;95.40
85936;BME280;76481;54.346;10.210;2024-02-21T05:26:55;101140.59;;;7.10;95.34
85936;BME280;76481;54.346;10.210;2024-02-21T05:29:20;101146.13;;;7.14;95.30
85936;BME280;76481;54.346;10.210;2024-02-21T05:34:17;101137.38;;;7.12;94.66
85936;BME280;76481;54.346;10.210;2024-02-21T05:36:43;101148.19;;;7.10;95.26
85936;BME280;76481;54.346;10.210;2024-02-21T05:39:09;101137.38;;;7.12;95.42
85936;BME280;76481;54.346;10.210;2024-02-21T05:41:34;101134.16;;;7.13;94.68
85936;BME280;76481;54.346;10.210;2024-02-21T05:44:00;101138.22;;;7.09;95.30
85936;BME280;76481;54.346;10.210;2024-02-21T05:46:25;101131.38;;;7.10;95.34
85936;BME280;76481;54.346;10.210;2024-02-21T05:48:51;101134.56;;;7.12;95.21
85936;BME280;76481;54.346;10.210;2024-02-21T05:51:16;101116.94;;;7.11;95.31
85936;BME280;76481;54.346;10.210;2024-02-21T05:53:42;101136.88;;;7.17;94.50
85936;BME280;76481;54.346;10.210;2024-02-21T05:56:11;101135.31;;;7.16;94.45
85936;BME280;76481;54.346;10.210;2024-02-21T05:58:37;101143.66;;;7.19;93.90
85936;BME280;76481;54.346;10.210;2024-02-21T06:01:02;101126.50;;;7.14;95.19
85936;BME280;76481;54.346;10.210;2024-02-21T06:03:29;101125.66;;;7.17;94.18
85936;BME280;76481;54.346;10.210;2024-02-21T06:05:54;101133.66;;;7.18;93.68
85936;BME280;76481;54.346;10.210;2024-02-21T06:08:20;101132.94;;;7.11;94.63
85936;BME280;76481;54.346;10.210;2024-02-21T06:10:45;101140.53;;;7.14;94.65
85936;BME280;76481;54.346;10.210;2024-02-21T06:13:11;101141.78;;;7.09;94.36
85936;BME280;76481;54.346;10.210;2024-02-21T06:15:36;101149.03;;;7.07;94.21
85936;BME280;76481;54.346;10.210;2024-02-21T06:18:02;101145.81;;;7.08;93.46
85936;BME280;76481;54.346;10.210;2024-02-21T06:20:27;101143.47;;;7.03;93.02
85936;BME280;76481;54.346;10.210;2024-02-21T06:22:54;101149.97;;;6.97;92.71
85936;BME280;76481;54.346;10.210;2024-02-21T06:25:19;101158.81;;;6.92;92.19
85936;BME280;76481;54.346;10.210;2024-02-21T06:27:45;101157.25;;;6.91;92.52
85936;BME280;76481;54.346;10.210;2024-02-21T06:30:10;101170.09;;;6.88;93.13
85936;BME280;76481;54.346;10.210;2024-02-21T06:32:36;101165.75;;;6.84;94.21
85936;BME280;76481;54.346;10.210;2024-02-21T06:35:01;101170.94;;;6.82;93.86
85936;BME280;76481;54.346;10.210;2024-02-21T06:37:27;101159.34;;;6.80;93.85
85936;BME280;76481;54.346;10.210;2024-02-21T06:39:53;101151.00;;;6.76;93.81
85936;BME280;76481;54.346;10.210;2024-02-21T06:42:21;101149.44;;;6.72;92.74
85936;BME280;76481;54.346;10.210;2024-02-21T06:44:46;101152.34;;;6.65;92.83
85936;BME280;76481;54.346;10.210;2024-02-21T06:47:12;101149.56;;;6.61;93.96
85936;BME280;76481;54.346;10.210;2024-02-21T06:49:37;101148.00;;;6.57;92.45
85936;BME280;76481;54.346;10.210;2024-02-21T06:52:04;101156.41;;;6.57;91.95
85936;BME280;76481;54.346;10.210;2024-02-21T06:54:30;101153.59;;;6.57;93.34
85936;BME280;76481;54.346;10.210;2024-02-21T06:56:56;101163.97;;;6.63;92.69
85936;BME280;76481;54.346;10.210;2024-02-21T06:59:21;101154.75;;;6.63;92.25
85936;BME280;76481;54.346;10.210;2024-02-21T07:01:49;101150.66;;;6.71;92.23
85936;BME280;76481;54.346;10.210;2024-02-21T07:04:14;101147.84;;;6.71;92.12
85936;BME280;76481;54.346;10.210;2024-02-21T07:06:40;101145.34;;;6.80;91.41
85936;BME280;76481;54.346;10.210;2024-02-21T07:09:06;101142.22;;;6.74;91.13
85936;BME280;76481;54.346;10.210;2024-02-21T07:11:31;101143.84;;;6.72;90.99
85936;BME280;76481;54.346;10.210;2024-02-21T07:13:57;101159.06;;;6.71;92.38
85936;BME280;76481;54.346;10.210;2024-02-21T07:16:22;101148.69;;;6.68;91.58
85936;BME280;76481;54.346;10.210;2024-02-21T07:18:48;101164.66;;;6.71;92.28
85936;BME280;76481;54.346;10.210;2024-02-21T07:21:13;101153.50;;;6.67;92.14
85936;BME280;76481;54.346;10.210;2024-02-21T07:23:43;101143.50;;;6.66;90.09
85936;BME280;76481;54.346;10.210;2024-02-21T07:26:09;101138.34;;;6.61;92.02
85936;BME280;76481;54.346;10.210;2024-02-21T07:28:34;101138.38;;;6.58;91.09
85936;BME280;76481;54.346;10.210;2024-02-21T07:31:00;101137.22;;;6.55;90.50
85936;BME280;76481;54.346;10.210;2024-02-21T07:33:25;101148.84;;;6.54;90.54
85936;BME280;76481;54.346;10.210;2024-02-21T07:35:51;101155.25;;;6.54;89.10
85936;BME280;76481;54.346;10.210;2024-02-21T07:38:16;101161.69;;;6.51;90.28
85936;BME280;76481;54.346;10.210;2024-02-21T07:40:46;101166.88;;;6.53;89.37
85936;BME280;76481;54.346;10.210;2024-02-21T07:43:12;101168.78;;;6.59;89.96
85936;BME280;76481;54.346;10.210;2024-02-21T07:45:37;101171.16;;;6.61;88.06
85936;BME280;76481;54.346;10.210;2024-02-21T07:48:05;101182.78;;;6.59;88.30
85936;BME280;76481;54.346;10.210;2024-02-21T07:50:30;101176.00;;;6.60;89.30
85936;BME280;76481;54.346;10.210;2024-02-21T07:52:56;101167.13;;;6.65;89.91
85936;BME280;76481;54.346;10.210;2024-02-21T07:55:21;101166.34;;;6.65;89.41
85936;BME280;76481;54.346;10.210;2024-02-21T07:57:47;101173.91;;;6.68;90.24
85936;BME280;76481;54.346;10.210;2024-02-21T08:00:12;101169.06;;;6.72;89.25
85936;BME280;76481;54.346;10.210;2024-02-21T08:02:46;101165.34;;;6.82;89.36
85936;BME280;76481;54.346;10.210;2024-02-21T08:05:11;101159.78;;;6.78;88.53
85936;BME280;76481;54.346;10.210;2024-02-21T08:07:38;101160.59;;;6.75;89.63
85936;BME280;76481;54.346;10.210;2024-02-21T08:10:04;101170.78;;;6.96;88.84
85936;BME280;76481;54.346;10.210;2024-02-21T08:12:30;101165.88;;;7.03;88.47
85936;BME280;76481;54.346;10.210;2024-02-21T08:14:55;101163.06;;;7.37;86.31
85936;BME280;76481;54.346;10.210;2024-02-21T08:17:21;101168.47;;;7.21;85.63
85936;BME280;76481;54.346;10.210;2024-02-21T08:19:48;101171.84;;;7.39;86.40
85936;BME280;76481;54.346;10.210;2024-02-21T08:22:14;101189.66;;;7.55;84.28
85936;BME280;76481;54.346;10.210;2024-02-21T08:24:40;101174.25;;;7.67;84.33
85936;BME280;76481;54.346;10.210;2024-02-21T08:27:05;101176.28;;;7.66;84.04
85936;BME280;76481;54.346;10.210;2024-02-21T08:29:31;101171.56;;;7.86;83.25
85936;BME280;76481;54.346;10.210;2024-02-21T08:31:57;101171.44;;;8.20;82.32
85936;BME280;76481;54.346;10.210;2024-02-21T08:34:22;101165.94;;;8.13;81.68
85936;BME280;76481;54.346;10.210;2024-02-21T08:36:47;101154.19;;;8.18;80.95
85936;BME280;76481;54.346;10.210;2024-02-21T08:39:13;101152.72;;;8.79;79.36
85936;BME280;76481;54.346;10.210;2024-02-21T08:41:42;101146.59;;;8.18;80.56
85936;BME280;76481;54.346;10.210;2024-02-21T08:44:08;101146.31;;;8.09;80.55
85936;BME280;76481;54.346;10.210;2024-02-21T08:46:33;101144.19;;;7.94;81.41
85936;BME280;76481;54.346;10.210;2024-02-21T08:48:59;101142.22;;;8.40;79.53
85936;BME280;76481;54.346;10.210;2024-02-21T08:51:24;101135.53;;;8.54;78.44
85936;BME280;76481;54.346;10.210;2024-02-21T08:53:50;101137.84;;;8.59;77.34
85936;BME280;76481;54.346;10.210;2024-02-21T08:56:16;101135.22;;;9.11;75.53
85936;BME280;76481;54.346;10.210;2024-02-21T08:58:41;101140.34;;;8.96;76.83
85936;BME280;76481;54.346;10.210;2024-02-21T09:01:07;101137.94;;;8.56;77.32
85936;BME280;76481;54.346;10.210;2024-02-21T09:03:37;101143.38;;;9.05;75.02
85936;BME280;76481;54.346;10.210;2024-02-21T09:06:04;101140.19;;;9.03;74.35
85936;BME280;76481;54.346;10.210;2024-02-21T09:08:30;101138.22;;;9.20;75.41
85936;BME280;76481;54.346;10.210;2024-02-21T09:10:55;101141.50;;;10.05;71.46
85936;BME280;76481;54.346;10.210;2024-02-21T09:13:20;101138.31;;;9.16;74.38
85936;BME280;76481;54.346;10.210;2024-02-21T09:15:50;101147.25;;;9.11;75.82
85936;BME280;76481;54.346;10.210;2024-02-21T09:18:16;101144.06;;;9.48;74.29
85936;BME280;76481;54.346;10.210;2024-02-21T09:20:42;101143.47;;;10.08;72.36
85936;BME280;76481;54.346;10.210;2024-02-21T09:23:08;101144.50;;;9.98;71.97
85936;BME280;76481;54.346;10.210;2024-02-21T09:25:33;101154.28;;;9.58;73.63
85936;BME280;76481;54.346;10.210;2024-02-21T09:28:01;101158.22;;;9.25;73.96
85936;BME280;76481;54.346;10.210;2024-02-21T09:30:27;101160.88;;;9.68;71.68
85936;BME280;76481;54.346;10.210;2024-02-21T09:32:52;101163.22;;;8.75;74.51
85936;BME280;76481;54.346;10.210;2024-02-21T09:35:18;101157.59;;;8.98;74.17
85936;BME280;76481;54.346;10.210;2024-02-21T09:37:44;101155.94;;;9.56;72.63
85936;BME280;76481;54.346;10.210;2024-02-21T09:40:09;101158.59;;;10.14;69.60
85936;BME280;76481;54.346;10.210;2024-02-21T09:42:40;101152.06;;;10.01;70.05
85936;BME280;76481;54.346;10.210;2024-02-21T09:45:23;101153.75;;;9.63;70.87
85936;BME280;76481;54.346;10.210;2024-02-21T09:50:24;101155.81;;;9.43;70.68
85936;BME280;76481;54.346;10.210;2024-02-21T09:52:51;101146.25;;;9.21;71.16
85936;BME280;76481;54.346;10.210;2024-02-21T09:55:18;101153.47;;;10.25;69.15
85936;BME280;76481;54.346;10.210;2024-02-21T09:57:44;101157.75;;;9.82;69.45
85936;BME280;76481;54.346;10.210;2024-02-21T10:00:10;101142.16;;;9.77;69.84
85936;BME280;76481;54.346;10.210;2024-02-21T10:02:39;101133.28;;;9.95;71.35
85936;BME280;76481;54.346;10.210;2024-02-21T10:05:05;101131.00;;;10.83;66.56
85936;BME280;76481;54.346;10.210;2024-02-21T10:07:33;101137.16;;;10.94;66.38
85936;BME280;76481;54.346;10.210;2024-02-21T10:10:02;101131.72;;;9.94;67.76
85936;BME280;76481;54.346;10.210;2024-02-21T10:12:28;101121.00;;;10.66;67.24
85936;BME280;76481;54.346;10.210;2024-02-21T10:15:04;101125.72;;;11.26;65.27
85936;BME280;76481;54.346;10.210;2024-02-21T10:17:31;101123.13;;;11.31;63.51
85936;BME280;76481;54.346;10.210;2024-02-21T10:20:09;101107.81;;;11.45;64.89
85936;BME280;76481;54.346;10.210;2024-02-21T10:22:35;101107.91;;;12.29;61.55
85936;BME280;76481;54.346;10.210;2024-02-21T10:25:12;101124.09;;;12.03;63.53
85936;BME280;76481;54.346;10.210;2024-02-21T10:27:40;101114.59;;;12.10;61.90
85936;BME280;76481;54.346;10.210;2024-02-21T10:30:13;101106.03;;;11.88;61.34
85936;BME280;76481;54.346;10.210;2024-02-21T10:32:50;101112.25;;;11.71;62.82
85936;BME280;76481;54.346;10.210;2024-02-21T10:35:34;101115.56;;;11.28;63.19
85936;BME280;76481;54.346;10.210;2024-02-21T10:37:59;101117.78;;;10.80;66.48
85936;BME280;76481;54.346;10.210;2024-02-21T10:40:27;101121.41;;;11.62;62.82
85936;BME280;76481;54.346;10.210;2024-02-21T10:42:57;101122.28;;;11.47;62.31
85936;BME280;76481;54.346;10.210;2024-02-21T10:45:32;101115.84;;;10.48;66.19
85936;BME280;76481;54.346;10.210;2024-02-21T10:48:10;101120.34;;;9.97;68.55
85936;BME280;76481;54.346;10.210;2024-02-21T10:51:25;101111.19;;;9.93;69.90
85936;BME280;76481;54.346;10.210;2024-02-21T10:58:48;101107.16;;;10.10;69.51
85936;BME280;76481;54.346;10.210;2024-02-21T11:01:14;101110.53;;;9.54;72.70
85936;BME280;76481;54.346;10.210;2024-02-21T11:03:44;101102.06;;;10.05;70.87
85936;BME280;76481;54.346;10.210;2024-02-21T11:06:13;101092.53;;;10.31;68.99
85936;BME280;76481;54.346;10.210;2024-02-21T11:08:40;101074.94;;;10.56;70.04
85936;BME280;76481;54.346;10.210;2024-02-21T11:11:05;101079.09;;;10.51;68.96
85936;BME280;76481;54.346;10.210;2024-02-21T11:13:37;101076.03;;;11.16;68.91
85936;BME280;76481;54.346;10.210;2024-02-21T11:16:10;101081.97;;;10.93;68.69
85936;BME280;76481;54.346;10.210;2024-02-21T11:18:39;101065.53;;;10.75;68.14
85936;BME280;76481;54.346;10.210;2024-02-21T11:21:04;101074.00;;;10.75;68.71
85936;BME280;76481;54.346;10.210;2024-02-21T11:23:31;101081.84;;;10.84;69.46
85936;BME280;76481;54.346;10.210;2024-02-21T11:26:09;101072.63;;;10.67;69.75
85936;BME280;76481;54.346;10.210;2024-02-21T11:28:36;101060.50;;;10.25;70.40
85936;BME280;76481;54.346;10.210;2024-02-21T11:31:13;101062.09;;;10.10;71.89
85936;BME280;76481;54.346;10.210;2024-02-21T11:33:42;101058.88;;;10.40;71.24
85936;BME280;76481;54.346;10.210;2024-02-21T11:36:09;101047.25;;;10.38;71.16
85936;BME280;76481;54.346;10.210;2024-02-21T11:38:34;101040.22;;;10.30;72.41
85936;BME280;76481;54.346;10.210;2024-02-21T11:41:00;101035.56;;;10.24;72.03
85936;BME280;76481;54.346;10.210;2024-02-21T11:43:25;101025.69;;;10.60;70.12
85936;BME280;76481;54.346;10.210;2024-02-21T11:45:59;101021.72;;;10.29;72.49
85936;BME280;76481;54.346;10.210;2024-02-21T11:48:25;101024.53;;;10.29;72.63
85936;BME280;76481;54.346;10.210;2024-02-21T11:50:54;101019.63;;;10.33;72.67
85936;BME280;76481;54.346;10.210;2024-02-21T11:53:20;101026.53;;;10.45;71.37
85936;BME280;76481;54.346;10.210;2024-02-21T11:55:46;101015.63;;;10.47;72.79
85936;BME280;76481;54.346;10.210;2024-02-21T11:58:11;101018.91;;;10.29;72.77
85936;BME280;76481;54.346;10.210;2024-02-21T12:00:37;101019.50;;;10.08;73.42
85936;BME280;76481;54.346;10.210;2024-02-21T12:03:04;101015.59;;;10.02;73.58
85936;BME280;76481;54.346;10.210;2024-02-21T12:05:31;101011.47;;;9.91;74.94
85936;BME280;76481;54.346;10.210;2024-02-21T12:07:57;101002.75;;;9.85;75.55
85936;BME280;76481;54.346;10.210;2024-02-21T12:10:23;101001.19;;;9.84;76.03
85936;BME280;76481;54.346;10.210;2024-02-21T12:12:52;100994.19;;;10.05;75.20
85936;BME280;76481;54.346;10.210;2024-02-21T12:15:20;100979.06;;;9.99;75.48
85936;BME280;76481;54.346;10.210;2024-02-21T12:17:45;100979.06;;;10.15;74.77
85936;BME280;76481;54.346;10.210;2024-02-21T12:20:11;100975.09;;;10.12;75.75
85936;BME280;76481;54.346;10.210;2024-02-21T12:22:41;100961.25;;;10.18;76.40
85936;BME280;76481;54.346;10.210;2024-02-21T12:25:16;100965.69;;;10.19;76.06
85936;BME280;76481;54.346;10.210;2024-02-21T12:27:48;100963.16;;;10.08;78.09
85936;BME280;76481;54.346;10.210;2024-02-21T12:30:15;100961.91;;;10.09;77.69
85936;BME280;76481;54.346;10.210;2024-02-21T12:32:40;100964.00;;;10.21;78.14
85936;BME280;76481;54.346;10.210;2024-02-21T12:35:07;100954.78;;;10.33;76.43
85936;BME280;76481;54.346;10.210;2024-02-21T12:37:32;100963.03;;;10.12;78.84
85936;BME280;76481;54.346;10.210;2024-02-21T12:39:58;100948.94;;;10.12;77.81
85936;BME280;76481;54.346;10.210;2024-02-21T12:42:24;100950.66;;;9.93;80.28
85936;BME280;76481;54.346;10.210;2024-02-21T12:44:51;100941.97;;;10.16;79.42
85936;BME280;76481;54.346;10.210;2024-02-21T12:47:18;100944.03;;;10.00;78.74
85936;BME280;76481;54.346;10.210;2024-02-21T12:49:45;100938.28;;;10.03;79.87
85936;BME280;76481;54.346;10.210;2024-02-21T12:52:11;100939.00;;;10.07;79.18
85936;BME280;76481;54.346;10.210;2024-02-21T12:54:37;100930.03;;;10.12;79.17